Time;durP1;ratioP1;P1;durP2;ratioP2;P2;SDS_P1;SDS_P2;PMS_P1;PMS_P2;Temp;Humidity;BMP_temperature;BMP_pressure;BME280_temperature;BME280_humidity;BME280_pressure;Samples;Min_cycle;Max_cycle;Signal;HPM_P1;HPM_P2
2023/03/27 00:00:56;;;;;;;;;;;;;;;2.88;83.89;101412.22;5016764;28;20533;-87
2023/03/27 00:03:24;;;;;;;0.82;0.50;;;;;;;2.89;83.90;101413.06;5016534;28;19952;-88
2023/03/27 00:06:23;;;;;;;0.93;0.40;;;;;;;2.90;83.92;101414.81;5016290;28;20026;-88
2023/03/27 00:08:50;;;;;;;0.40;0.40;;;;;;;2.91;84.47;101424.22;4983672;28;20394;-87
2023/03/27 00:11:16;;;;;;;0.40;0.40;;;;;;;2.86;84.11;101421.56;5016035;28;20022;-87
2023/03/27 00:13:43;;;;;;;1.52;0.55;;;;;;;2.91;84.25;101431.94;5016338;28;20026;-88
2023/03/27 00:16:09;;;;;;;1.75;0.70;;;;;;;2.89;84.24;101433.56;5016345;28;20022;-88
2023/03/27 00:18:35;;;;;;;0.63;0.63;;;;;;;2.89;84.44;101438.69;5016235;28;20026;-87
2023/03/27 00:21:01;;;;;;;0.70;0.60;;;;;;;2.87;84.57;101443.81;5015933;28;20486;-88
2023/03/27 00:23:28;;;;;;;0.63;0.60;;;;;;;2.88;84.67;101448.09;5016502;28;20075;-87
2023/03/27 00:25:55;;;;;;;0.93;0.63;;;;;;;2.84;84.63;101450.56;5015624;28;20034;-88
2023/03/27 00:28:21;;;;;;;0.65;0.40;;;;;;;2.85;84.56;101463.41;5016469;28;20501;-88
2023/03/27 00:30:47;;;;;;;0.60;0.55;;;;;;;2.81;84.83;101461.59;5015828;28;20026;-88
2023/03/27 00:33:13;;;;;;;0.53;0.53;;;;;;;2.77;85.37;101458.06;5015888;28;20467;-87
2023/03/27 00:35:43;;;;;;;0.93;0.60;;;;;;;2.77;84.74;101462.34;5016051;28;20036;-88
2023/03/27 00:38:08;;;;;;;0.55;0.30;;;;;;;2.76;85.20;101471.69;5015689;28;20022;-87
2023/03/27 00:40:33;;;;;;;0.60;0.60;;;;;;;2.77;85.48;101472.59;5015740;28;20083;-88
2023/03/27 00:42:59;;;;;;;1.02;0.40;;;;;;;2.76;85.22;101469.13;5015819;28;20026;-87
2023/03/27 00:45:29;;;;;;;2.22;0.68;;;;;;;2.73;85.39;101458.81;5015669;28;20173;-88
2023/03/27 00:47:59;;;;;;;1.65;0.55;;;;;;;2.73;85.54;101465.63;5015767;28;20045;-88
2023/03/27 00:50:29;;;;;;;0.55;0.55;;;;;;;2.75;85.43;101474.25;5016166;28;20042;-87
2023/03/27 00:53:00;;;;;;;1.17;0.50;;;;;;;2.74;85.52;101480.19;5015032;28;20033;-88
2023/03/27 00:55:30;;;;;;;0.40;0.40;;;;;;;2.72;85.64;101481.84;5015487;28;20040;-87
2023/03/27 00:58:00;;;;;;;0.55;0.50;;;;;;;2.71;85.80;101485.22;5015342;28;20030;-87
2023/03/27 01:00:26;;;;;;;0.60;0.57;;;;;;;2.68;85.29;101480.88;5015035;28;20037;-88
2023/03/27 01:02:53;;;;;;;0.50;0.50;;;;;;;2.74;85.96;101493.88;5015444;28;20109;-88
2023/03/27 01:05:21;;;;;;;0.55;0.40;;;;;;;2.76;86.04;101505.03;5015960;28;20022;-88
2023/03/27 01:07:48;;;;;;;1.55;1.00;;;;;;;2.70;87.20;101501.47;5014740;28;20069;-88
2023/03/27 01:10:20;;;;;;;2.97;1.10;;;;;;;2.69;88.97;101515.94;5014824;28;20022;-88
2023/03/27 01:13:10;;;;;;;3.90;1.38;;;;;;;2.70;88.45;101511.72;5015207;28;20032;-85
2023/03/27 01:15:43;;;;;;;2.60;1.00;;;;;;;2.70;87.74;101507.44;5014777;28;20034;-87
2023/03/27 01:18:36;;;;;;;3.67;1.30;;;;;;;2.70;88.57;101512.56;5014903;28;20049;-87
2023/03/27 01:21:21;;;;;;;1.63;0.90;;;;;;;2.67;89.50;101506.50;5014525;28;20026;-88
2023/03/27 01:23:52;;;;;;;4.82;1.85;;;;;;;2.66;92.31;101531.22;5014890;28;20098;-87
2023/03/27 01:27:15;;;;;;;2.67;1.70;;;;;;;2.66;90.58;101530.38;5015083;28;20029;-87
2023/03/27 01:30:07;;;;;;;4.00;1.58;;;;;;;2.67;91.04;101522.72;4953982;28;20039;-87
2023/03/27 01:33:04;;;;;;;1.52;1.10;;;;;;;2.66;89.81;101513.28;4954520;29;20027;-87
2023/03/27 01:35:48;;;;;;;;;;;;;;;2.68;90.51;101531.28;5005940;28;20049;-87
2023/03/27 01:38:24;;;;;;;1.77;1.02;;;;;;;2.65;90.36;101528.63;5014869;28;19917;-87
2023/03/27 01:41:00;;;;;;;2.30;0.80;;;;;;;2.69;89.88;101535.59;5014652;28;20038;-88
2023/03/27 01:43:34;;;;;;;0.60;0.60;;;;;;;2.68;89.62;101528.72;5014465;28;20025;-87
2023/03/27 01:46:07;;;;;;;1.23;0.70;;;;;;;2.70;89.69;101530.50;5014571;28;20041;-88
2023/03/27 01:48:39;;;;;;;2.13;0.82;;;;;;;2.72;90.50;101543.34;5014697;28;20021;-88
2023/03/27 01:51:12;;;;;;;1.45;0.80;;;;;;;2.66;90.94;101540.63;5014613;28;20022;-88
2023/03/27 01:53:45;;;;;;;5.55;1.20;;;;;;;2.59;91.76;101535.31;5014393;28;20026;-88
2023/03/27 01:56:25;;;;;;;1.42;1.05;;;;;;;2.60;90.62;101547.31;5014333;28;20509;-88
2023/03/27 01:58:55;;;;;;;2.80;1.10;;;;;;;2.59;91.18;101553.25;5014366;28;20058;-87
2023/03/27 02:01:26;;;;;;;1.35;1.00;;;;;;;2.59;91.05;101549.84;5014407;28;20030;-88
2023/03/27 02:03:56;;;;;;;2.08;0.90;;;;;;;2.58;90.73;101548.09;5014200;28;20037;-88
2023/03/27 02:06:40;;;;;;;0.80;0.80;;;;;;;2.58;90.25;101548.09;5014363;28;20033;-88
2023/03/27 02:09:17;;;;;;;1.65;0.85;;;;;;;2.58;89.81;101555.78;5014152;28;20132;-88
2023/03/27 02:11:50;;;;;;;2.42;0.85;;;;;;;2.60;89.87;101559.25;5014217;28;20076;-88
2023/03/27 02:14:26;;;;;;;0.60;0.60;;;;;;;2.60;90.12;101570.38;5014512;28;20471;-88
2023/03/27 02:16:57;;;;;;;0.60;0.60;;;;;;;2.56;90.22;101563.44;5013859;28;20029;-88
2023/03/27 02:19:33;;;;;;;0.95;0.80;;;;;;;2.59;89.79;101576.31;5014534;28;20459;-88
2023/03/27 02:22:02;;;;;;;1.45;0.70;;;;;;;2.54;89.83;101580.47;5013882;28;20030;-88
2023/03/27 02:24:27;;;;;;;0.60;0.60;;;;;;;2.55;90.28;101589.88;5014172;28;20026;-88
2023/03/27 02:27:00;;;;;;;0.70;0.70;;;;;;;2.53;90.14;101582.97;5013901;28;20033;-88
2023/03/27 02:29:44;;;;;;;1.10;0.80;;;;;;;2.53;90.26;101593.22;5014439;28;20373;-88
2023/03/27 02:32:33;;;;;;;0.40;0.40;;;;;;;2.50;89.64;101593.13;5013162;28;20034;-88
2023/03/27 02:35:26;;;;;;;0.52;0.52;;;;;;;2.46;89.87;101594.75;5013946;28;20029;-88
2023/03/27 02:38:10;;;;;;;1.02;0.80;;;;;;;2.38;89.74;101583.38;5010515;28;20029;-88
2023/03/27 02:41:02;;;;;;;1.95;0.70;;;;;;;2.39;nan;101597.91;5013947;28;20037;-87
2023/03/27 02:43:36;;;;;;;1.35;0.70;;;;;;;2.35;89.54;101608.91;4996533;28;20049;-88
2023/03/27 02:46:09;;;;;;;1.00;0.90;;;;;;;2.29;89.50;101605.31;5013291;28;20036;-88
2023/03/27 02:49:03;;;;;;;1.05;0.98;;;;;;;2.30;89.88;101611.34;5014052;28;20117;-88
2023/03/27 02:51:45;;;;;;;1.40;0.90;;;;;;;2.28;89.74;101612.97;5010452;28;20038;-88
2023/03/27 02:54:15;;;;;;;1.05;0.93;;;;;;;2.24;89.85;101614.56;5013493;28;20478;-88
2023/03/27 02:56:54;;;;;;;2.17;1.20;;;;;;;2.22;89.75;101607.63;5013603;28;20113;-88
2023/03/27 02:59:24;;;;;;;1.20;0.88;;;;;;;2.18;89.56;101614.38;5012931;28;20478;-88
2023/03/27 03:01:50;;;;;;;0.80;0.80;;;;;;;2.16;89.92;101616.00;5013386;28;20063;-88
2023/03/27 03:04:18;;;;;;;1.85;1.38;;;;;;;2.15;90.26;101627.06;5012962;28;20026;-88
2023/03/27 03:06:49;;;;;;;1.30;1.20;;;;;;;2.09;90.75;101619.19;5013425;28;20034;-88
2023/03/27 03:09:17;;;;;;;0.70;0.70;;;;;;;2.10;90.45;101628.63;5013699;28;20041;-87
2023/03/27 03:11:52;;;;;;;1.10;0.80;;;;;;;2.10;90.50;101632.03;5013672;28;20049;-88
2023/03/27 03:14:23;;;;;;;0.80;0.80;;;;;;;2.08;90.23;101637.94;5013326;28;20041;-87
2023/03/27 03:16:48;;;;;;;0.57;0.55;;;;;;;2.08;90.61;101643.06;5012780;28;20049;-88
2023/03/27 03:19:14;;;;;;;1.90;1.08;;;;;;;2.09;90.65;101647.38;5013125;28;20026;-87
2023/03/27 03:21:39;;;;;;;0.95;0.90;;;;;;;2.09;90.29;101644.81;5012558;28;20084;-88
2023/03/27 03:24:06;;;;;;;2.28;1.30;;;;;;;2.06;91.03;101648.16;5012964;28;20041;-88
2023/03/27 03:26:32;;;;;;;2.47;1.02;;;;;;;2.02;90.48;101648.84;5013012;28;20132;-88
2023/03/27 03:28:57;;;;;;;2.25;1.10;;;;;;;1.98;90.97;101647.88;5013007;28;20033;-88
2023/03/27 03:31:23;;;;;;;1.58;0.95;;;;;;;1.97;90.71;101660.66;5012872;28;20553;-88
2023/03/27 03:33:48;;;;;;;0.80;0.80;;;;;;;1.96;90.95;101658.91;5013047;28;20038;-87
2023/03/27 03:36:13;;;;;;;1.20;0.93;;;;;;;1.95;90.75;101665.69;5013105;28;20508;-88
2023/03/27 03:38:40;;;;;;;1.20;0.63;;;;;;;1.91;90.81;101665.53;5013083;28;20061;-88
2023/03/27 03:41:05;;;;;;;1.13;0.60;;;;;;;1.88;90.97;101661.19;5013007;28;20096;-88
2023/03/27 03:43:31;;;;;;;1.23;0.60;;;;;;;1.89;91.03;101678.31;5013416;28;20026;-88
2023/03/27 03:45:57;;;;;;;0.77;0.75;;;;;;;1.86;90.60;101678.19;5012825;28;20053;-87
2023/03/27 03:48:22;;;;;;;0.60;0.60;;;;;;;1.90;91.09;101685.16;5012788;28;20026;-88
2023/03/27 03:50:48;;;;;;;0.70;0.70;;;;;;;1.90;90.90;101687.72;5012289;28;20060;-88
2023/03/27 03:53:16;;;;;;;1.57;0.83;;;;;;;1.93;91.25;101694.63;5013505;28;20025;-88
2023/03/27 03:55:43;;;;;;;0.93;0.88;;;;;;;1.92;91.13;101696.31;5013028;28;20034;-88
2023/03/27 03:58:08;;;;;;;1.47;1.10;;;;;;;1.94;91.12;101698.94;5012482;28;20046;-88
2023/03/27 04:00:38;;;;;;;0.65;0.65;;;;;;;1.93;91.08;101703.16;5013223;28;20753;-88
2023/03/27 04:03:08;;;;;;;0.98;0.85;;;;;;;1.94;91.30;101707.47;5012538;28;20033;-86
2023/03/27 04:05:36;;;;;;;0.63;0.63;;;;;;;1.90;91.53;101705.66;5013418;28;20029;-88
2023/03/27 04:08:02;;;;;;;0.90;0.75;;;;;;;1.90;91.82;101709.88;5012789;28;20053;-88
2023/03/27 04:10:28;;;;;;;0.68;0.68;;;;;;;1.91;91.52;101712.50;5012402;28;20112;-88
2023/03/27 04:12:54;;;;;;;1.02;0.73;;;;;;;1.92;91.25;101710.81;5012731;28;20032;-88
2023/03/27 04:15:20;;;;;;;0.80;0.67;;;;;;;1.89;91.53;101720.94;5012734;28;20372;-88
2023/03/27 04:17:47;;;;;;;0.70;0.70;;;;;;;1.87;91.33;101720.91;5016090;28;20033;-87
2023/03/27 04:20:13;;;;;;;0.70;0.70;;;;;;;1.87;91.86;101718.34;5016609;28;20022;-88
2023/03/27 04:22:45;;;;;;;1.13;0.75;;;;;;;1.87;91.72;101722.56;5016644;28;20045;-88
2023/03/27 04:25:12;;;;;;;0.80;0.75;;;;;;;1.86;91.53;101729.38;5016289;28;20065;-88
2023/03/27 04:27:38;;;;;;;0.60;0.60;;;;;;;1.88;91.63;101730.31;5016467;28;20097;-89
2023/03/27 04:30:07;;;;;;;1.15;0.68;;;;;;;1.90;91.34;101733.81;5016028;28;20451;-89
2023/03/27 04:32:43;;;;;;;0.73;0.73;;;;;;;1.83;91.65;101734.41;5016009;28;20033;-89
2023/03/27 04:35:13;;;;;;;1.23;0.80;;;;;;;1.90;91.09;101751.72;5015742;28;20294;-88
2023/03/27 04:37:41;;;;;;;0.80;0.80;;;;;;;1.88;91.53;101745.69;5016057;28;20773;-88
2023/03/27 04:40:08;;;;;;;0.70;0.70;;;;;;;1.85;91.23;101761.81;5101443;23;20506;-88
2023/03/27 04:42:33;;;;;;;0.68;0.60;;;;;;;1.84;91.61;101765.19;5016201;28;20054;-87
2023/03/27 04:45:00;;;;;;;0.90;0.80;;;;;;;1.82;91.36;101769.38;5014530;28;20529;-87
2023/03/27 04:47:25;;;;;;;;;;;;;;;1.80;91.80;101776.13;5016113;28;20030;-86
2023/03/27 04:49:51;;;;;;;0.90;0.90;;;;;;;1.78;91.82;101774.34;5014826;28;20385;-86
2023/03/27 04:52:17;;;;;;;0.50;0.50;;;;;;;1.76;91.56;101776.81;5015195;28;20030;-86
2023/03/27 04:54:43;;;;;;;0.65;0.65;;;;;;;1.74;92.02;101770.78;5015485;28;20022;-87
2023/03/27 04:57:09;;;;;;;1.33;1.00;;;;;;;1.73;91.51;101776.72;5015116;28;20105;-87
2023/03/27 04:59:35;;;;;;;0.70;0.70;;;;;;;1.68;91.63;101775.69;5014614;28;20049;-84
2023/03/27 05:02:02;;;;;;;0.60;0.60;;;;;;;1.70;91.73;101780.03;5015646;28;20026;-87
2023/03/27 05:04:29;;;;;;;0.85;0.82;;;;;;;1.72;91.90;101780.09;5015189;28;20030;-86
2023/03/27 05:06:56;;;;;;;0.68;0.60;;;;;;;1.74;91.58;101795.50;5014033;28;20022;-87
2023/03/27 05:09:30;;;;;;;0.77;0.70;;;;;;;1.65;92.22;101779.00;4995490;28;20080;-87
2023/03/27 05:11:55;;;;;;;0.68;0.68;;;;;;;1.75;92.27;101804.94;4994515;28;20455;-85
2023/03/27 05:14:22;;;;;;;0.75;0.75;;;;;;;1.74;92.35;101804.06;4994723;28;20084;-85
2023/03/27 05:16:49;;;;;;;0.93;0.70;;;;;;;1.75;92.29;101803.22;5007785;28;20069;-82
2023/03/27 05:19:15;;;;;;;1.92;0.80;;;;;;;1.73;92.58;101809.09;5014884;28;20148;-83
2023/03/27 05:21:42;;;;;;;1.17;0.70;;;;;;;1.73;92.35;101812.56;5014160;28;20034;-83
2023/03/27 05:24:08;;;;;;;0.75;0.75;;;;;;;1.72;92.47;101822.72;5014260;28;20405;-83
2023/03/27 05:26:34;;;;;;;1.00;0.90;;;;;;;1.69;92.60;101819.22;5013367;28;20025;-83
2023/03/27 05:28:59;;;;;;;1.13;1.00;;;;;;;1.72;92.36;101826.16;5013156;28;20037;-83
2023/03/27 05:31:26;;;;;;;1.10;0.95;;;;;;;1.69;92.32;101824.34;5014703;28;20062;-85
2023/03/27 05:33:52;;;;;;;;;;;;;;;1.75;92.40;101830.53;5013873;28;20036;-81
2023/03/27 05:36:18;;;;;;;0.87;0.80;;;;;;;1.75;92.40;101833.94;5014801;28;19996;-87
2023/03/27 05:38:43;;;;;;;1.02;0.73;;;;;;;1.79;92.36;101837.50;5014464;28;20042;-86
2023/03/27 05:41:09;;;;;;;0.88;0.77;;;;;;;1.81;92.38;101838.41;5013507;28;20037;-86
2023/03/27 05:43:35;;;;;;;1.08;0.88;;;;;;;1.82;92.97;101841.03;5015016;28;20068;-89
2023/03/27 05:46:01;;;;;;;0.63;0.63;;;;;;;1.84;92.58;101841.97;5014169;28;20022;-86
2023/03/27 05:48:26;;;;;;;1.52;0.93;;;;;;;1.88;92.83;101850.63;5014433;28;20459;-89
2023/03/27 05:50:52;;;;;;;0.90;0.65;;;;;;;1.92;93.37;101847.34;5014851;28;20069;-90
2023/03/27 05:53:17;;;;;;;0.88;0.65;;;;;;;1.97;93.40;101855.22;5015454;28;20025;-90
2023/03/27 05:55:43;;;;;;;0.75;0.60;;;;;;;2.00;93.44;101857.88;5013774;28;20030;-89
2023/03/27 05:58:10;;;;;;;0.57;0.57;;;;;;;2.01;93.61;101859.63;5014645;28;20022;-88
2023/03/27 06:00:37;;;;;;;0.80;0.80;;;;;;;2.05;93.56;101858.03;5014086;28;20028;-89
2023/03/27 06:03:03;;;;;;;0.52;0.52;;;;;;;2.09;93.51;101867.59;5014297;28;20462;-89
2023/03/27 06:05:28;;;;;;;1.50;1.05;;;;;;;2.15;93.81;101884.06;5015107;28;20025;-90
2023/03/27 06:08:01;;;;;;;1.42;0.90;;;;;;;2.18;94.36;101888.41;5014824;28;20042;-89
2023/03/27 06:10:27;;;;;;;4.88;2.20;;;;;;;2.15;96.24;101898.53;5014197;28;20481;-90
2023/03/27 06:13:00;;;;;;;8.52;2.70;;;;;;;2.13;95.14;101910.44;5014781;28;20026;-89
2023/03/27 06:15:25;;;;;;;6.50;3.20;;;;;;;1.93;95.86;101905.44;5014914;28;20033;-90
2023/03/27 06:17:51;;;;;;;5.82;2.97;;;;;;;1.99;96.50;101907.34;5013552;28;20041;-89
2023/03/27 06:20:18;;;;;;;6.80;2.50;;;;;;;1.85;96.74;101894.94;5014495;28;20025;-88
2023/03/27 06:22:50;;;;;;;3.15;2.10;;;;;;;1.83;96.80;101895.66;5012696;28;20099;-89
2023/03/27 06:25:17;;;;;;;3.42;1.77;;;;;;;1.85;96.63;101894.03;5014005;28;20368;-90
2023/03/27 06:27:44;;;;;;;2.08;1.83;;;;;;;1.82;96.90;101897.38;5015159;28;20080;-90
2023/03/27 06:30:11;;;;;;;3.30;1.55;;;;;;;1.85;95.82;101904.28;5013800;28;20026;-85
2023/03/27 06:32:42;;;;;;;1.50;1.40;;;;;;;1.84;96.40;101898.31;5013483;28;20026;-85
2023/03/27 06:35:08;;;;;;;1.50;1.38;;;;;;;1.90;96.31;101905.34;5013120;28;20116;-86
2023/03/27 06:37:36;;;;;;;2.47;1.13;;;;;;;1.89;96.47;101911.28;5012960;28;20058;-91
2023/03/27 06:40:02;;;;;;;;;;;;;;;1.89;96.09;101913.84;5013900;28;20119;-88
2023/03/27 06:42:28;;;;;;;0.73;0.73;;;;;;;1.92;95.67;101913.91;5013777;28;19944;-87
2023/03/27 06:44:53;;;;;;;1.02;0.70;;;;;;;1.94;95.20;101922.53;5012656;28;20433;-87
2023/03/27 06:47:18;;;;;;;1.65;0.90;;;;;;;2.01;95.31;101923.66;5013293;28;20022;-87
2023/03/27 06:49:46;;;;;;;1.63;0.90;;;;;;;2.05;95.25;101928.06;5013347;28;20470;-87
2023/03/27 06:52:12;;;;;;;0.80;0.80;;;;;;;2.10;95.03;101933.38;5012834;28;20018;-87
2023/03/27 06:54:38;;;;;;;0.98;0.98;;;;;;;2.33;96.45;101935.91;5013723;28;20041;-87
2023/03/27 06:57:04;;;;;;;1.92;1.20;;;;;;;3.93;99.29;101934.28;5013511;28;20028;-87
2023/03/27 06:59:29;;;;;;;0.90;0.85;;;;;;;6.63;96.65;101927.06;5012533;28;20105;-87
2023/03/27 07:01:54;;;;;;;0.60;0.60;;;;;;;9.23;92.91;101936.50;5013045;28;20533;-87
2023/03/27 07:04:20;;;;;;;1.60;1.10;;;;;;;11.37;81.63;101945.06;5013803;28;20037;-88
2023/03/27 07:06:47;;;;;;;1.13;1.00;;;;;;;12.92;78.09;101942.69;5012452;28;20165;-88
2023/03/27 07:09:13;;;;;;;0.93;0.93;;;;;;;14.29;67.52;101951.75;5013845;28;20026;-88
2023/03/27 07:11:39;;;;;;;2.67;1.30;;;;;;;14.82;63.26;101950.16;5013938;28;20029;-88
2023/03/27 07:14:04;;;;;;;1.35;1.00;;;;;;;15.06;64.68;101957.66;5012661;28;20026;-88
2023/03/27 07:16:30;;;;;;;1.30;0.93;;;;;;;15.09;60.66;101958.47;5020588;22;20050;-88
2023/03/27 07:18:56;;;;;;;1.20;1.00;;;;;;;14.24;61.13;101962.28;5013458;28;20022;-88
2023/03/27 07:21:24;;;;;;;1.00;1.00;;;;;;;12.95;61.00;101960.03;5015714;28;20049;-88
2023/03/27 07:23:49;;;;;;;1.00;0.80;;;;;;;11.55;65.49;101970.13;5013063;28;20053;-88
2023/03/27 07:26:15;;;;;;;2.37;1.33;;;;;;;10.05;60.86;101966.38;5012998;28;20025;-88
2023/03/27 07:28:41;;;;;;;6.50;1.70;;;;;;;8.81;68.14;101972.38;5013642;28;20030;-88
2023/03/27 07:31:12;;;;;;;3.97;1.67;;;;;;;7.76;67.88;101978.78;5013239;28;20026;-88
2023/03/27 07:33:38;;;;;;;4.15;1.80;;;;;;;6.75;69.06;101972.84;5070259;23;20054;-88
2023/03/27 07:36:08;;;;;;;4.47;2.13;;;;;;;6.15;72.64;101982.81;5012918;28;20029;-88
2023/03/27 07:38:34;;;;;;;2.53;1.63;;;;;;;5.70;73.27;101978.34;5012813;28;20025;-87
2023/03/27 07:41:05;;;;;;;2.03;1.53;;;;;;;5.31;75.58;101977.44;5012350;28;20077;-88
2023/03/27 07:43:32;;;;;;;1.90;1.50;;;;;;;4.98;76.86;101986.03;5013387;28;20033;-88
2023/03/27 07:45:58;;;;;;;2.25;1.27;;;;;;;4.77;77.72;101992.34;5012955;28;20478;-88
2023/03/27 07:48:23;;;;;;;3.07;1.57;;;;;;;4.58;78.93;101995.25;5013104;28;20129;-88
2023/03/27 07:50:49;;;;;;;3.50;1.60;;;;;;;4.48;79.96;101992.44;5013465;28;20116;-87
2023/03/27 07:53:14;;;;;;;3.90;1.75;;;;;;;4.35;80.32;101989.44;5017208;28;20022;-87
2023/03/27 07:55:40;;;;;;;2.05;1.50;;;;;;;4.27;80.17;101995.25;5016083;28;20125;-87
2023/03/27 07:58:06;;;;;;;4.72;1.95;;;;;;;4.21;80.68;101996.75;5017214;28;20037;-87
2023/03/27 08:00:34;;;;;;;5.03;1.88;;;;;;;4.12;79.70;101992.19;5017071;28;20030;-88
2023/03/27 08:03:07;;;;;;;3.40;1.70;;;;;;;4.11;80.72;101995.63;5016096;28;20022;-88
2023/03/27 08:05:32;;;;;;;3.22;1.70;;;;;;;4.11;80.49;102001.63;5017391;28;20050;-88
2023/03/27 08:07:58;;;;;;;2.95;1.98;;;;;;;4.09;80.26;101999.84;5016454;28;20026;-87
2023/03/27 08:10:24;;;;;;;4.47;2.08;;;;;;;4.15;81.02;102002.59;5016244;28;20034;-88
2023/03/27 08:12:50;;;;;;;2.53;1.60;;;;;;;4.17;81.16;102000.94;5016724;28;20026;-88
2023/03/27 08:15:16;;;;;;;5.95;1.80;;;;;;;4.27;81.08;102017.50;5016021;28;20452;-88
2023/03/27 08:17:41;;;;;;;5.07;1.83;;;;;;;4.32;79.86;102019.38;5017129;28;20022;-88
2023/03/27 08:20:14;;;;;;;3.30;1.80;;;;;;;4.36;79.48;102011.75;5016304;28;20022;-87
2023/03/27 08:22:42;;;;;;;4.05;1.70;;;;;;;4.47;78.71;102011.25;5016024;28;20026;-86
2023/03/27 08:25:17;;;;;;;5.03;1.70;;;;;;;4.53;79.06;102009.66;5016769;28;20051;-88
2023/03/27 08:27:45;;;;;;;7.18;1.90;;;;;;;4.51;77.07;102022.47;5016590;28;20030;-88
2023/03/27 08:30:13;;;;;;;7.32;2.20;;;;;;;4.43;77.09;102027.41;5016378;28;20073;-88
2023/03/27 08:32:40;;;;;;;7.80;2.03;;;;;;;4.52;79.27;102033.63;5016925;28;20505;-89
2023/03/27 08:35:08;;;;;;;4.70;1.90;;;;;;;4.59;78.66;102033.84;5016467;28;20096;-88
2023/03/27 08:37:34;;;;;;;5.60;2.00;;;;;;;4.64;77.83;102031.41;5016223;28;20025;-88
2023/03/27 08:40:00;;;;;;;5.47;1.63;;;;;;;4.68;78.50;102022.97;5016087;28;20026;-88
2023/03/27 08:42:35;;;;;;;5.05;1.80;;;;;;;4.74;79.11;102038.56;5016292;28;20478;-88
2023/03/27 08:45:26;;;;;;;4.53;1.50;;;;;;;4.79;78.75;102030.97;5015757;28;20312;-88
2023/03/27 08:48:04;;;;;;;4.93;1.55;;;;;;;4.84;78.22;102039.69;5005301;28;20128;-87
2023/03/27 08:50:37;;;;;;;4.45;1.60;;;;;;;4.98;76.73;102044.34;5015614;28;20026;-88
2023/03/27 08:53:10;;;;;;;5.82;1.50;;;;;;;5.15;73.77;102039.66;5016029;28;20026;-88
2023/03/27 08:55:41;;;;;;;4.35;1.50;;;;;;;5.33;77.67;102052.13;5016144;28;20057;-88
2023/03/27 08:58:18;;;;;;;4.40;1.80;;;;;;;5.45;76.43;102043.84;5015193;28;20237;-83
2023/03/27 09:00:50;;;;;;;3.25;1.40;;;;;;;5.45;76.38;102041.28;5015745;28;20049;-88
2023/03/27 09:03:21;;;;;;;4.35;1.40;;;;;;;5.48;75.93;102054.22;5016025;28;20030;-88
2023/03/27 09:05:57;;;;;;;3.55;1.15;;;;;;;5.64;76.04;102058.06;5015761;28;20477;-87
2023/03/27 09:08:53;;;;;;;5.53;1.58;;;;;;;5.69;72.21;102057.34;5016350;28;20037;-87
2023/03/27 09:11:42;;;;;;;6.22;1.48;;;;;;;5.67;74.36;102065.88;5016672;28;20052;-89
2023/03/27 09:14:18;;;;;;;6.53;1.40;;;;;;;5.53;72.61;102068.06;5016548;28;20382;-91
2023/03/27 09:16:48;;;;;;;4.35;1.33;;;;;;;5.32;71.59;102077.00;5016283;28;20112;-88
2023/03/27 09:19:52;;;;;;;5.97;1.60;;;;;;;5.33;73.04;102067.59;5015655;28;20034;-89
2023/03/27 09:22:28;;;;;;;5.00;1.90;;;;;;;5.74;72.49;102072.03;5016499;28;20030;-89
2023/03/27 09:24:57;;;;;;;4.60;1.40;;;;;;;6.05;70.30;102067.66;5015916;28;20065;-89
2023/03/27 09:27:35;;;;;;;6.72;1.40;;;;;;;6.08;71.91;102112.41;5016131;28;20446;-90
2023/03/27 09:30:18;;;;;;;5.30;1.55;;;;;;;5.42;77.07;102129.63;5015799;28;20050;-89
2023/03/27 09:32:50;;;;;;;2.15;0.90;;;;;;;4.58;79.38;102131.53;5016199;28;20041;-90
2023/03/27 09:35:19;;;;;;;1.65;0.57;;;;;;;4.17;80.95;102127.69;5020934;28;20084;-90
2023/03/27 09:37:58;;;;;;;0.70;0.40;;;;;;;3.62;82.74;102118.19;5016029;28;20109;-89
2023/03/27 09:40:32;;;;;;;1.60;0.60;;;;;;;3.36;84.05;102123.31;5015585;28;20030;-88
2023/03/27 09:43:07;;;;;;;2.63;0.70;;;;;;;3.29;84.72;102118.75;5015705;28;20033;-89
2023/03/27 09:45:33;;;;;;;1.40;0.65;;;;;;;3.20;86.07;102116.78;5015614;28;20045;-88
2023/03/27 09:48:04;;;;;;;1.53;1.00;;;;;;;3.31;87.36;102120.59;5015420;28;20030;-89
2023/03/27 09:50:45;;;;;;;1.60;0.82;;;;;;;3.60;88.75;102115.56;5015723;28;20601;-88
2023/03/27 09:53:14;;;;;;;2.42;0.90;;;;;;;3.94;89.22;102121.84;5015556;28;20022;-89
2023/03/27 09:55:53;;;;;;;1.60;0.60;;;;;;;4.27;87.34;102116.03;5015286;28;20466;-89
2023/03/27 09:58:30;;;;;;;0.77;0.50;;;;;;;4.45;85.81;102126.00;5015798;28;20037;-89
2023/03/27 10:01:12;;;;;;;3.65;0.60;;;;;;;4.54;85.73;102128.00;5015363;28;20097;-89
2023/03/27 10:03:58;;;;;;;1.48;0.70;;;;;;;4.60;84.63;102127.31;5015683;28;20105;-89
2023/03/27 10:06:42;;;;;;;0.80;0.70;;;;;;;4.74;85.38;102127.72;5015062;28;20433;-89
2023/03/27 10:09:21;;;;;;;1.17;0.63;;;;;;;5.07;86.00;102134.66;5014719;28;20113;-88
2023/03/27 10:11:49;;;;;;;1.40;0.75;;;;;;;5.35;86.06;102133.72;5015174;28;20040;-89
2023/03/27 10:14:21;;;;;;;1.30;0.63;;;;;;;5.64;84.32;102128.47;5014881;28;20366;-89
2023/03/27 10:16:47;;;;;;;0.70;0.60;;;;;;;5.94;84.76;102126.63;5014981;28;20026;-90
2023/03/27 10:19:26;;;;;;;3.37;0.93;;;;;;;6.26;80.53;102119.69;5015544;28;20021;-89
2023/03/27 10:21:53;;;;;;;1.77;1.08;;;;;;;6.50;80.26;102134.00;5015020;28;20112;-89
2023/03/27 10:24:29;;;;;;;0.95;0.70;;;;;;;6.69;79.52;102119.78;5030111;22;20501;-89
2023/03/27 10:26:57;;;;;;;1.45;0.88;;;;;;;6.68;76.90;102119.72;5015245;28;20030;-89
2023/03/27 10:29:30;;;;;;;3.22;1.10;;;;;;;6.60;76.90;102120.44;5014623;28;20022;-90
2023/03/27 10:31:57;;;;;;;3.17;1.13;;;;;;;6.46;77.07;102127.00;5014926;28;20041;-89
2023/03/27 10:34:36;;;;;;;1.73;1.13;;;;;;;6.34;74.00;102132.78;5015075;28;20022;-89
2023/03/27 10:37:19;;;;;;;2.40;1.30;;;;;;;6.12;72.66;102113.34;5014870;28;20026;-89
2023/03/27 10:39:45;;;;;;;3.65;1.50;;;;;;;6.17;73.33;102122.06;5015110;28;20026;-89
2023/03/27 10:42:13;;;;;;;4.07;1.42;;;;;;;6.23;72.07;102122.19;5019104;28;20018;-90
2023/03/27 10:44:40;;;;;;;5.25;1.50;;;;;;;6.25;67.04;102117.94;5034408;28;20025;-89
2023/03/27 10:47:16;;;;;;;3.03;1.20;;;;;;;6.29;66.68;102127.50;5034637;28;20112;-89
2023/03/27 10:49:45;;;;;;;4.50;1.50;;;;;;;6.40;65.41;102135.47;5034553;28;20032;-89
2023/03/27 10:52:22;;;;;;;4.05;1.42;;;;;;;6.66;67.60;102168.72;5033492;28;20029;-89
2023/03/27 10:54:52;;;;;;;;;;;;;;;5.88;68.55;102181.44;5035053;28;20037;-90
2023/03/27 10:57:32;;;;;;;4.60;1.00;;;;;;;5.14;74.00;102180.31;5034802;28;19972;-89
2023/03/27 11:00:17;;;;;;;3.90;1.13;;;;;;;5.01;76.59;102194.53;5034184;28;20038;-90
2023/03/27 11:02:57;;;;;;;3.35;1.25;;;;;;;4.17;81.25;102196.22;5034826;28;20025;-89
2023/03/27 11:05:29;;;;;;;6.50;1.65;;;;;;;3.46;85.94;102209.19;5034800;28;20036;-89
2023/03/27 11:08:19;;;;;;;3.28;1.55;;;;;;;3.09;88.73;102198.44;5034473;28;20174;-90
2023/03/27 11:10:45;;;;;;;4.20;1.30;;;;;;;3.03;90.20;102199.09;5034108;28;20037;-88
2023/03/27 11:13:16;;;;;;;3.92;1.30;;;;;;;3.07;91.28;102207.78;5034021;28;20358;-88
2023/03/27 11:15:56;;;;;;;2.33;1.20;;;;;;;3.17;91.09;102197.03;5033995;28;20030;-88
2023/03/27 11:18:31;;;;;;;3.88;1.17;;;;;;;3.35;91.39;102201.97;5033167;28;20040;-89
2023/03/27 11:21:00;;;;;;;1.55;1.00;;;;;;;3.52;90.47;102201.72;5033762;28;20025;-88
2023/03/27 11:23:37;;;;;;;1.15;0.80;;;;;;;3.74;90.44;102200.78;5034047;28;20426;-88
2023/03/27 11:26:10;;;;;;;4.15;1.48;;;;;;;3.89;90.61;102199.56;4994957;28;20058;-79
2023/03/27 11:28:42;;;;;;;3.53;1.30;;;;;;;4.08;91.73;102194.22;4997618;28;20038;-86
2023/03/27 11:31:24;;;;;;;1.77;1.20;;;;;;;4.44;90.05;102190.25;4997166;28;20042;-86
2023/03/27 11:34:04;;;;;;;1.20;0.90;;;;;;;4.87;89.72;102191.56;4994907;28;20022;-86
2023/03/27 11:36:51;;;;;;;0.60;0.60;;;;;;;5.28;89.44;102192.72;4979492;28;20035;-91
2023/03/27 11:39:54;;;;;;;1.55;1.10;;;;;;;5.74;87.50;102201.72;4989882;28;20014;-85
2023/03/27 11:42:23;;;;;;;1.40;0.88;;;;;;;6.00;87.01;102193.81;4996955;28;20038;-84
2023/03/27 11:44:50;;;;;;;1.98;1.20;;;;;;;6.29;87.65;102189.38;4996974;28;20033;-85
2023/03/27 11:47:34;;;;;;;;;;;;;;;6.55;84.40;102189.13;4996823;28;20088;-86
2023/03/27 11:50:22;;;;;;;2.63;1.10;;;;;;;6.84;84.64;102188.91;4996924;28;19914;-85
2023/03/27 11:53:24;;;;;;;1.30;1.00;;;;;;;7.22;83.72;102185.38;4996937;28;20381;-85